createdAt,value
2022-10-17T00:01:42.806Z,45.51
2022-10-17T00:04:09.591Z,45.24
2022-10-17T00:06:36.407Z,45.10
2022-10-17T00:09:03.177Z,45.09
2022-10-17T00:11:29.955Z,44.96
2022-10-17T00:13:56.740Z,44.59
2022-10-17T00:16:23.498Z,44.62
2022-10-17T00:18:50.253Z,44.80
2022-10-17T00:21:17.054Z,44.67
2022-10-17T00:23:43.812Z,46.86
2022-10-17T00:26:10.578Z,45.83
2022-10-17T00:28:37.380Z,49.45
2022-10-17T00:31:04.226Z,50.30
2022-10-17T00:33:31.253Z,48.28
2022-10-17T00:35:58.025Z,46.98
2022-10-17T00:38:24.780Z,46.12
2022-10-17T00:40:51.550Z,45.73
2022-10-17T00:43:18.370Z,45.21
2022-10-17T00:45:45.118Z,45.73
2022-10-17T00:48:11.972Z,44.94
2022-10-17T00:50:38.753Z,44.75
2022-10-17T00:53:05.552Z,44.67
2022-10-17T00:55:32.307Z,44.80
2022-10-17T00:57:59.168Z,44.66
2022-10-17T01:00:25.906Z,44.68
2022-10-17T01:02:52.658Z,44.17
2022-10-17T01:05:19.476Z,47.41
2022-10-17T01:07:46.236Z,47.55
2022-10-17T01:10:13.026Z,51.36
2022-10-17T01:12:39.864Z,49.18
2022-10-17T01:15:06.611Z,47.22
2022-10-17T01:17:33.354Z,46.21
2022-10-17T01:20:00.226Z,45.63
2022-10-17T01:22:27.401Z,45.35
2022-10-17T01:24:54.501Z,44.71
2022-10-17T01:27:21.301Z,44.72
2022-10-17T01:29:48.102Z,44.85
2022-10-17T01:32:14.899Z,44.56
2022-10-17T01:34:41.685Z,44.81
2022-10-17T01:37:08.461Z,44.87
2022-10-17T01:39:36.969Z,45.11
2022-10-17T01:42:05.249Z,47.41
2022-10-17T01:44:31.997Z,45.01
2022-10-17T01:46:58.755Z,49.38
2022-10-17T01:49:25.712Z,50.33
2022-10-17T01:51:52.516Z,48.46
2022-10-17T01:54:19.264Z,46.58
2022-10-17T01:56:46.018Z,46.28
2022-10-17T01:59:12.763Z,46.09
2022-10-17T02:01:39.542Z,45.63
2022-10-17T02:04:06.476Z,45.15
2022-10-17T02:06:33.229Z,44.99
2022-10-17T02:08:59.972Z,45.12
2022-10-17T02:11:26.772Z,44.94
2022-10-17T02:13:53.564Z,44.88
2022-10-17T02:16:20.306Z,44.60
2022-10-17T02:18:47.093Z,44.36
2022-10-17T02:21:13.907Z,44.97
2022-10-17T02:23:40.658Z,46.99
2022-10-17T02:26:07.421Z,49.24
2022-10-17T02:28:34.188Z,51.31
2022-10-17T02:31:00.965Z,48.43
2022-10-17T02:33:27.712Z,46.48
2022-10-17T02:35:54.457Z,46.07
2022-10-17T02:38:21.203Z,45.56
2022-10-17T02:40:47.975Z,45.69
2022-10-17T02:43:14.767Z,45.37
2022-10-17T02:45:41.536Z,45.04
2022-10-17T02:48:08.354Z,44.78
2022-10-17T02:50:35.176Z,44.81
2022-10-17T02:53:01.921Z,45.12
2022-10-17T02:55:28.669Z,44.37
2022-10-17T02:57:55.408Z,44.49
2022-10-17T03:00:22.192Z,47.21
2022-10-17T03:02:48.956Z,46.35
2022-10-17T03:05:15.717Z,48.62
2022-10-17T03:07:42.461Z,50.38
2022-10-17T03:10:09.248Z,49.39
2022-10-17T03:12:35.987Z,47.29
2022-10-17T03:15:02.795Z,46.62
2022-10-17T03:17:29.568Z,45.78
2022-10-17T03:19:56.311Z,45.45
2022-10-17T03:22:23.133Z,45.55
2022-10-17T03:24:50.357Z,45.15
2022-10-17T03:27:17.114Z,44.89
2022-10-17T03:29:43.878Z,45.27
2022-10-17T03:32:10.677Z,44.55
2022-10-17T03:34:37.425Z,44.71
2022-10-17T03:37:04.179Z,44.71
2022-10-17T03:39:30.942Z,46.68
2022-10-17T03:41:57.689Z,46.73
2022-10-17T03:44:24.437Z,47.58
2022-10-17T03:46:51.272Z,50.60
2022-10-17T03:49:18.007Z,50.06
2022-10-17T03:51:44.758Z,47.89
2022-10-17T03:54:11.511Z,46.65
2022-10-17T03:56:38.289Z,46.34
2022-10-17T03:59:05.072Z,45.85
2022-10-17T04:01:32.033Z,45.65
2022-10-17T04:03:58.881Z,45.45
2022-10-17T04:06:25.625Z,45.33
2022-10-17T04:08:52.388Z,45.33
2022-10-17T04:11:19.170Z,45.26
2022-10-17T04:13:45.968Z,44.67
2022-10-17T04:16:12.764Z,44.81
2022-10-17T04:18:39.548Z,44.30
2022-10-17T04:21:06.671Z,47.09
2022-10-17T04:23:33.431Z,46.35
2022-10-17T04:26:00.173Z,48.79
2022-10-17T04:28:27.001Z,51.05
2022-10-17T04:30:54.180Z,49.40
2022-10-17T04:33:20.967Z,47.84
2022-10-17T04:35:47.717Z,46.82
2022-10-17T04:38:14.472Z,46.35
2022-10-17T04:40:41.244Z,45.75
2022-10-17T04:43:07.985Z,45.43
2022-10-17T04:45:34.746Z,45.10
2022-10-17T04:48:01.497Z,45.38
2022-10-17T04:50:28.242Z,45.13
2022-10-17T04:52:55.004Z,45.26
2022-10-17T04:55:21.746Z,44.77
2022-10-17T04:57:48.488Z,44.80
2022-10-17T05:00:15.337Z,44.93
2022-10-17T05:02:42.080Z,47.48
2022-10-17T05:05:08.838Z,47.51
2022-10-17T05:07:35.604Z,52.35
2022-10-17T05:10:02.638Z,50.14
2022-10-17T05:12:29.641Z,47.68
2022-10-17T05:14:56.544Z,46.56
2022-10-17T05:17:23.338Z,46.34
2022-10-17T05:19:50.091Z,46.03
2022-10-17T05:22:16.839Z,45.65
2022-10-17T05:24:43.625Z,45.64
2022-10-17T05:27:10.369Z,45.42
2022-10-17T05:29:37.349Z,45.43
2022-10-17T05:32:04.109Z,44.91
2022-10-17T05:34:30.856Z,45.19
2022-10-17T05:36:57.629Z,45.10
2022-10-17T05:39:24.373Z,44.72
2022-10-17T05:41:52.330Z,45.72
2022-10-17T05:44:19.097Z,47.00
2022-10-17T05:46:45.844Z,45.59
2022-10-17T05:49:19.650Z,50.30
2022-10-17T05:51:58.605Z,50.48
2022-10-17T05:54:25.332Z,48.53
2022-10-17T05:56:52.252Z,47.01
2022-10-17T05:59:19.019Z,46.82
2022-10-17T06:01:45.798Z,46.32
2022-10-17T06:04:12.618Z,45.43
2022-10-17T06:06:39.371Z,45.21
2022-10-17T06:09:06.144Z,45.71
2022-10-17T06:11:32.890Z,45.00
2022-10-17T06:13:59.653Z,45.41
2022-10-17T06:16:26.405Z,44.95
2022-10-17T06:18:53.151Z,45.18
2022-10-17T06:21:19.905Z,45.19
2022-10-17T06:23:46.863Z,50.33
2022-10-17T06:26:13.654Z,51.89
2022-10-17T06:28:40.802Z,48.69
2022-10-17T06:31:07.647Z,47.07
2022-10-17T06:33:34.401Z,45.74
2022-10-17T06:36:01.161Z,45.35
2022-10-17T06:38:27.916Z,45.28
2022-10-17T06:40:57.328Z,45.52
2022-10-17T06:43:28.007Z,45.20
2022-10-17T06:45:54.884Z,44.96
2022-10-17T06:48:21.622Z,45.11
2022-10-17T06:50:48.374Z,44.42
2022-10-17T06:53:15.122Z,48.43
2022-10-17T06:55:42.801Z,51.59
2022-10-17T06:58:09.569Z,50.27
2022-10-17T07:00:36.482Z,47.00
2022-10-17T07:03:03.325Z,46.57
2022-10-17T07:05:30.096Z,45.77
2022-10-17T07:07:56.845Z,45.46
2022-10-17T07:10:23.610Z,45.26
2022-10-17T07:12:50.387Z,45.54
2022-10-17T07:15:17.208Z,45.06
2022-10-17T07:17:43.989Z,45.08
2022-10-17T07:20:10.793Z,50.86
2022-10-17T07:22:37.548Z,52.09
2022-10-17T07:25:04.312Z,48.80
2022-10-17T07:27:31.230Z,46.33
2022-10-17T07:29:58.154Z,45.81
2022-10-17T07:32:25.017Z,46.04
2022-10-17T07:34:51.867Z,45.65
2022-10-17T07:37:18.695Z,45.69
2022-10-17T07:39:45.516Z,45.16
2022-10-17T07:42:12.340Z,45.20
2022-10-17T07:44:39.109Z,45.33
2022-10-17T07:47:05.885Z,48.58
2022-10-17T07:49:32.724Z,51.50
2022-10-17T07:51:59.500Z,50.60
2022-10-17T07:54:26.299Z,47.31
2022-10-17T07:56:53.057Z,46.12
2022-10-17T07:59:19.817Z,45.83
2022-10-17T08:01:46.592Z,45.44
2022-10-17T08:04:13.345Z,45.48
2022-10-17T08:06:40.083Z,44.85
2022-10-17T08:09:06.970Z,45.27
2022-10-17T08:11:34.566Z,44.64
2022-10-17T08:14:01.305Z,49.05
2022-10-17T08:16:28.045Z,51.50
2022-10-17T08:18:54.898Z,49.98
2022-10-17T08:21:21.714Z,47.34
2022-10-17T08:23:48.473Z,45.94
2022-10-17T08:26:17.390Z,45.78
2022-10-17T08:28:44.326Z,45.96
2022-10-17T08:31:11.311Z,45.66
2022-10-17T08:33:38.085Z,45.01
2022-10-17T08:36:04.827Z,45.29
2022-10-17T08:38:35.151Z,44.97
2022-10-17T08:41:02.490Z,49.29
2022-10-17T08:43:33.272Z,51.78
2022-10-17T08:46:03.083Z,50.32
2022-10-17T08:48:29.878Z,46.36
2022-10-17T08:50:56.738Z,45.83
2022-10-17T08:53:23.815Z,45.68
2022-10-17T08:55:50.612Z,45.32
2022-10-17T08:58:17.362Z,45.27
2022-10-17T09:00:46.110Z,44.97
2022-10-17T09:03:12.904Z,47.24
2022-10-17T09:05:39.716Z,45.85
2022-10-17T09:08:06.459Z,45.06
2022-10-17T09:10:33.222Z,46.65
2022-10-17T09:13:02.836Z,45.47
2022-10-17T09:15:33.504Z,45.48
2022-10-17T09:18:00.275Z,46.14
2022-10-17T09:20:27.125Z,44.94
2022-10-17T09:22:53.950Z,48.29
2022-10-17T09:25:20.996Z,51.49
2022-10-17T09:27:47.897Z,52.78
2022-10-17T09:30:21.453Z,48.07
2022-10-17T09:33:00.186Z,46.67
2022-10-17T09:35:26.992Z,46.03
2022-10-17T09:37:53.778Z,45.73
2022-10-17T09:40:20.726Z,45.75
2022-10-17T09:42:47.460Z,44.89
2022-10-17T09:45:14.206Z,47.47
2022-10-17T09:47:41.306Z,51.27
2022-10-17T09:50:08.180Z,52.15
2022-10-17T09:52:34.952Z,47.52
2022-10-17T09:55:01.739Z,46.38
2022-10-17T09:57:28.501Z,45.94
2022-10-17T09:59:55.253Z,45.54
2022-10-17T10:02:22.058Z,45.23
2022-10-17T10:05:03.859Z,45.60
2022-10-17T10:07:31.684Z,47.89
2022-10-17T10:09:58.497Z,50.80
2022-10-17T10:12:25.340Z,53.16
2022-10-17T10:14:54.711Z,48.00
2022-10-17T10:17:22.128Z,46.77
2022-10-17T10:19:48.906Z,45.89
2022-10-17T10:22:15.739Z,45.98
2022-10-17T10:24:42.485Z,45.56
2022-10-17T10:27:09.233Z,45.40
2022-10-17T10:29:36.004Z,45.67
2022-10-17T10:32:02.763Z,46.38
2022-10-17T10:34:29.559Z,45.84
2022-10-17T10:36:56.442Z,45.41
2022-10-17T10:39:23.196Z,49.94
2022-10-17T10:41:49.977Z,51.97
2022-10-17T10:44:16.748Z,51.00
2022-10-17T10:46:43.510Z,47.39
2022-10-17T10:49:10.268Z,46.57
2022-10-17T10:51:37.025Z,46.54
2022-10-17T10:54:03.822Z,45.83
2022-10-17T10:56:30.589Z,45.66
2022-10-17T10:58:57.336Z,45.31
2022-10-17T11:01:24.269Z,48.00
2022-10-17T11:03:51.009Z,51.82
2022-10-17T11:06:17.827Z,51.87
2022-10-17T11:08:44.641Z,47.47
2022-10-17T11:11:13.757Z,46.37
2022-10-17T11:13:40.565Z,45.94
2022-10-17T11:16:07.328Z,46.04
2022-10-17T11:18:34.348Z,45.80
2022-10-17T11:21:01.142Z,45.84
2022-10-17T11:23:28.169Z,46.79
2022-10-17T11:25:54.912Z,50.75
2022-10-17T11:28:21.753Z,52.85
2022-10-17T11:30:48.550Z,48.82
2022-10-17T11:33:15.295Z,46.99
2022-10-17T11:35:42.047Z,46.22
2022-10-17T11:38:08.867Z,45.89
2022-10-17T11:40:35.628Z,45.73
2022-10-17T11:43:02.387Z,45.70
2022-10-17T11:45:29.188Z,45.44
2022-10-17T11:47:55.933Z,50.16
2022-10-17T11:53:09.755Z,49.30
2022-10-17T11:55:38.292Z,46.62
2022-10-17T11:58:05.466Z,46.30
2022-10-17T12:00:32.564Z,46.17
2022-10-17T12:02:59.441Z,46.27
2022-10-17T12:05:26.204Z,45.85
2022-10-17T12:07:53.097Z,45.78
2022-10-17T12:10:19.970Z,47.79
2022-10-17T12:12:48.086Z,51.17
2022-10-17T12:15:14.879Z,52.79
2022-10-17T12:17:41.706Z,48.37
2022-10-17T12:20:08.452Z,46.71
2022-10-17T12:22:35.210Z,46.48
2022-10-17T12:25:02.228Z,45.92
2022-10-17T12:27:29.165Z,45.91
2022-10-17T12:29:56.073Z,45.91
2022-10-17T12:32:22.828Z,45.33
2022-10-17T12:34:49.584Z,48.65
2022-10-17T12:37:16.384Z,51.35
2022-10-17T12:39:43.180Z,51.89
2022-10-17T12:42:09.930Z,47.53
2022-10-17T12:44:37.878Z,46.47
2022-10-17T12:47:04.640Z,46.44
2022-10-17T12:49:31.617Z,45.67
2022-10-17T12:51:58.377Z,45.62
2022-10-17T12:54:25.744Z,47.64
2022-10-17T12:56:52.503Z,51.48
2022-10-17T12:59:19.252Z,52.95
2022-10-17T13:01:46.361Z,49.07
2022-10-17T13:04:13.310Z,47.08
2022-10-17T13:06:40.320Z,46.54
2022-10-17T13:09:07.242Z,46.75
2022-10-17T13:11:33.985Z,45.62
2022-10-17T13:14:00.762Z,46.07
2022-10-17T13:16:27.561Z,45.59
2022-10-17T13:18:54.310Z,47.98
2022-10-17T13:21:21.666Z,51.37
2022-10-17T13:23:50.698Z,52.69
2022-10-17T13:26:19.972Z,48.19
2022-10-17T13:28:46.880Z,47.02
2022-10-17T13:31:13.761Z,46.29
2022-10-17T13:33:40.740Z,46.13
2022-10-17T13:36:07.529Z,45.74
2022-10-17T13:38:36.652Z,45.79
2022-10-17T13:41:30.546Z,46.09
2022-10-17T13:43:52.823Z,50.65
2022-10-17T13:46:36.905Z,52.15
2022-10-17T13:49:04.989Z,49.41
2022-10-17T13:51:31.756Z,46.94
2022-10-17T13:53:58.625Z,46.89
2022-10-17T13:56:29.925Z,46.81
2022-10-17T13:58:57.549Z,45.86
2022-10-17T14:01:24.318Z,45.72
2022-10-17T14:04:02.147Z,45.70
2022-10-17T14:06:34.896Z,47.94
2022-10-17T14:09:01.675Z,51.28
2022-10-17T14:11:28.536Z,52.72
2022-10-17T14:13:55.285Z,48.08
2022-10-17T14:16:22.086Z,47.15
2022-10-17T14:18:49.268Z,46.96
2022-10-17T14:21:44.951Z,46.61
2022-10-17T14:24:02.892Z,46.14
2022-10-17T14:26:29.732Z,45.96
2022-10-17T14:28:56.530Z,49.50
2022-10-17T14:31:25.595Z,51.91
2022-10-17T14:33:52.589Z,51.27
2022-10-17T14:36:19.539Z,47.65
2022-10-17T14:38:47.027Z,47.50
2022-10-17T14:44:00.678Z,46.37
2022-10-17T14:46:27.432Z,46.39
2022-10-17T14:48:54.578Z,45.79
2022-10-17T14:51:21.557Z,47.37
2022-10-17T14:53:48.305Z,51.63
2022-10-17T14:56:15.050Z,52.88
2022-10-17T14:58:41.809Z,49.20
2022-10-17T15:01:08.699Z,47.61
2022-10-17T15:03:35.502Z,46.75
2022-10-17T15:06:04.658Z,46.54
2022-10-17T15:08:31.496Z,46.73
2022-10-17T15:10:58.365Z,46.17
2022-10-17T15:13:27.963Z,46.48
2022-10-17T15:15:55.917Z,50.69
2022-10-17T15:18:22.672Z,52.54
2022-10-17T15:20:55.379Z,50.46
2022-10-17T15:23:31.571Z,47.93
2022-10-17T15:25:58.336Z,47.17
2022-10-17T15:28:25.119Z,46.53
2022-10-17T15:30:51.902Z,46.45
2022-10-17T15:33:18.674Z,46.38
2022-10-17T15:35:45.867Z,46.03
2022-10-17T15:38:12.641Z,48.06
2022-10-17T15:40:39.576Z,51.39
2022-10-17T15:43:06.329Z,53.77
2022-10-17T15:45:33.084Z,49.17
2022-10-17T15:47:59.917Z,47.64
2022-10-17T15:50:28.912Z,47.08
2022-10-17T15:52:55.657Z,46.63
2022-10-17T15:55:22.409Z,46.29
2022-10-17T15:57:49.168Z,46.53
2022-10-17T16:00:16.785Z,46.06
2022-10-17T16:02:43.647Z,47.88
2022-10-17T16:05:10.403Z,51.21
2022-10-17T16:07:37.148Z,52.79
2022-10-17T16:10:03.917Z,49.95
2022-10-17T16:12:33.592Z,47.66
2022-10-17T16:15:00.451Z,46.92
2022-10-17T16:17:27.390Z,46.57
2022-10-17T16:19:54.369Z,46.74
2022-10-17T16:22:21.106Z,46.46
2022-10-17T16:24:47.871Z,51.17
2022-10-17T16:27:14.646Z,52.74
2022-10-17T16:29:41.395Z,50.73
2022-10-17T16:32:08.144Z,48.24
2022-10-17T16:34:34.998Z,47.41
2022-10-17T16:37:01.784Z,46.80
2022-10-17T16:42:00.212Z,46.02
2022-10-17T16:44:26.983Z,45.84
2022-10-17T16:46:53.745Z,46.90
2022-10-17T16:49:20.519Z,51.12
2022-10-17T16:51:47.458Z,52.74
2022-10-17T16:54:14.240Z,49.68
2022-10-17T16:56:42.049Z,47.72
2022-10-17T16:59:08.814Z,46.98
2022-10-17T17:01:35.617Z,46.96
2022-10-17T17:04:04.428Z,46.36
2022-10-17T17:06:31.195Z,46.35
2022-10-17T17:08:57.995Z,46.14
2022-10-17T17:11:24.771Z,48.16
2022-10-17T17:13:51.513Z,51.66
2022-10-17T17:16:18.273Z,53.60
2022-10-17T17:18:45.970Z,49.48
2022-10-17T17:21:12.716Z,47.63
2022-10-17T17:23:39.563Z,47.01
2022-10-17T17:26:06.332Z,47.08
2022-10-17T17:28:33.092Z,46.58
2022-10-17T17:30:59.890Z,46.42
2022-10-17T17:33:26.785Z,45.87
2022-10-17T17:35:53.533Z,49.64
2022-10-17T17:38:20.280Z,52.07
2022-10-17T17:40:50.593Z,52.75
2022-10-17T17:43:17.862Z,48.65
2022-10-17T17:45:44.779Z,47.87
2022-10-17T17:48:12.209Z,46.99
2022-10-17T17:50:38.983Z,46.78
2022-10-17T17:53:05.789Z,46.31
2022-10-17T17:55:32.605Z,46.32
2022-10-17T17:57:59.344Z,45.91
2022-10-17T18:00:26.130Z,48.03
2022-10-17T18:02:52.976Z,51.30
2022-10-17T18:05:19.721Z,53.12
2022-10-17T18:07:46.490Z,50.33
2022-10-17T18:12:42.395Z,47.43
2022-10-17T18:15:09.161Z,47.16
2022-10-17T18:17:36.040Z,46.89
2022-10-17T18:20:03.399Z,46.69
2022-10-17T18:22:30.528Z,46.15
2022-10-17T18:24:57.495Z,46.75
2022-10-17T18:27:24.454Z,51.69
2022-10-17T18:29:51.522Z,52.79
2022-10-17T18:32:18.280Z,51.33
2022-10-17T18:34:45.032Z,48.57
2022-10-17T18:37:11.791Z,47.33
2022-10-17T18:39:38.563Z,47.19
2022-10-17T18:42:05.317Z,46.82
2022-10-17T18:44:32.118Z,46.57
2022-10-17T18:47:02.972Z,46.39
2022-10-17T18:49:31.116Z,45.86
2022-10-17T18:51:59.401Z,47.66
2022-10-17T18:54:26.180Z,50.94
2022-10-17T18:56:52.952Z,52.94
2022-10-17T18:59:19.708Z,50.06
2022-10-17T19:01:46.514Z,48.26
2022-10-17T19:04:13.470Z,47.17
2022-10-17T19:06:40.268Z,47.43
2022-10-17T19:09:07.078Z,46.51
2022-10-17T19:11:33.832Z,46.48
2022-10-17T19:14:00.662Z,46.44
2022-10-17T19:16:27.476Z,46.64
2022-10-17T19:18:54.377Z,49.72
2022-10-17T19:21:22.033Z,52.83
2022-10-17T19:23:49.217Z,53.29
2022-10-17T19:26:15.964Z,49.53
2022-10-17T19:28:43.179Z,47.83
2022-10-17T19:31:12.980Z,46.80
2022-10-17T19:33:42.158Z,47.06
2022-10-17T19:36:08.957Z,46.33
2022-10-17T19:38:35.731Z,46.37
2022-10-17T19:41:02.470Z,46.27
2022-10-17T19:43:29.284Z,46.53
2022-10-17T19:45:56.021Z,46.63
2022-10-17T19:48:22.816Z,50.70
2022-10-17T19:50:52.932Z,52.55
2022-10-17T19:53:19.764Z,51.43
2022-10-17T19:55:46.527Z,48.99
2022-10-17T19:58:13.368Z,47.35
2022-10-17T20:00:40.109Z,46.62
2022-10-17T20:03:06.853Z,46.50
2022-10-17T20:05:33.609Z,46.56
2022-10-17T20:08:00.346Z,46.27
2022-10-17T20:10:27.109Z,46.33
2022-10-17T20:12:53.896Z,49.32
2022-10-17T20:15:20.649Z,52.29
2022-10-17T20:17:47.481Z,53.85
2022-10-17T20:20:14.264Z,49.52
2022-10-17T20:22:41.085Z,48.17
2022-10-17T20:25:07.830Z,47.53
2022-10-17T20:27:34.585Z,47.00
2022-10-17T20:30:02.296Z,46.89
2022-10-17T20:32:29.272Z,46.46
2022-10-17T20:34:56.347Z,46.62
2022-10-17T20:37:23.094Z,45.96
2022-10-17T20:39:59.917Z,46.82
2022-10-17T20:42:36.900Z,50.04
2022-10-17T20:45:03.717Z,52.09
2022-10-17T20:47:44.225Z,52.50
2022-10-17T20:50:12.952Z,48.84
2022-10-17T20:52:39.697Z,47.77
2022-10-17T20:55:06.474Z,47.31
2022-10-17T20:57:33.241Z,46.81
2022-10-17T20:59:59.984Z,46.88
2022-10-17T21:02:26.737Z,46.65
2022-10-17T21:04:53.483Z,46.69
2022-10-17T21:07:22.070Z,46.57
2022-10-17T21:09:48.807Z,46.92
2022-10-17T21:12:25.799Z,51.02
2022-10-17T21:15:02.425Z,52.64
2022-10-17T21:17:29.196Z,51.53
2022-10-17T21:19:56.109Z,48.93
2022-10-17T21:22:22.904Z,48.06
2022-10-17T21:24:49.657Z,47.63
2022-10-17T21:27:16.405Z,46.54
2022-10-17T21:29:43.201Z,46.68
2022-10-17T21:32:19.485Z,46.21
2022-10-17T21:34:56.909Z,46.72
2022-10-17T21:37:23.663Z,46.31
2022-10-17T21:39:50.404Z,49.13
2022-10-17T21:42:17.135Z,52.04
2022-10-17T21:44:43.898Z,54.13
2022-10-17T21:47:10.641Z,50.16
2022-10-17T21:49:38.086Z,48.39
2022-10-17T21:52:07.101Z,47.90
2022-10-17T21:54:33.877Z,46.93
2022-10-17T21:57:00.613Z,47.15
2022-10-17T21:59:27.413Z,46.80
2022-10-17T22:01:54.248Z,46.81
2022-10-17T22:04:21.089Z,46.77
2022-10-17T22:06:47.849Z,46.56
2022-10-17T22:09:14.635Z,50.28
2022-10-17T22:11:41.562Z,52.65
2022-10-17T22:14:08.310Z,53.53
2022-10-17T22:16:35.057Z,49.80
2022-10-17T22:19:05.884Z,48.22
2022-10-17T22:21:33.437Z,47.83
2022-10-17T22:24:00.361Z,46.86
2022-10-17T22:26:27.110Z,47.17
2022-10-17T22:28:53.963Z,46.56
2022-10-17T22:31:20.772Z,46.47
2022-10-17T22:33:47.521Z,46.34
2022-10-17T22:36:14.294Z,45.94
2022-10-17T22:38:41.041Z,46.55
2022-10-17T22:41:07.787Z,48.54
2022-10-17T22:43:34.602Z,52.50
2022-10-17T22:46:01.349Z,53.71
2022-10-17T22:48:28.101Z,49.70
2022-10-17T22:50:54.862Z,48.11
2022-10-17T22:53:26.336Z,47.78
2022-10-17T22:55:53.076Z,47.44
2022-10-17T22:58:19.889Z,46.72
2022-10-17T23:00:46.641Z,46.78
2022-10-17T23:03:13.399Z,46.32
2022-10-17T23:05:40.205Z,46.17
2022-10-17T23:08:06.951Z,49.50
2022-10-17T23:10:33.738Z,52.11
2022-10-17T23:13:00.484Z,53.61
2022-10-17T23:15:27.246Z,50.06
2022-10-17T23:17:54.192Z,48.09
2022-10-17T23:20:20.999Z,47.77
2022-10-17T23:22:47.745Z,47.53
2022-10-17T23:25:14.493Z,47.03
2022-10-17T23:27:41.261Z,46.88
2022-10-17T23:30:08.004Z,46.97
2022-10-17T23:32:34.753Z,46.41
2022-10-17T23:35:01.654Z,48.29
2022-10-17T23:37:28.565Z,52.14
2022-10-17T23:39:55.576Z,53.17
2022-10-17T23:42:22.449Z,50.99
2022-10-17T23:44:49.244Z,49.05
2022-10-17T23:47:15.989Z,47.64
2022-10-17T23:49:42.789Z,47.29
2022-10-17T23:52:09.749Z,47.11
2022-10-17T23:54:36.530Z,47.15
2022-10-17T23:57:03.390Z,46.60
2022-10-17T23:59:30.161Z,46.82
